• Join FlightAware (Why Join?)
  • Login
  • US Flag 
01:43PM EST


 

Airport Tracker/Info


-or-


 

Live Flight TrackerFlight Track Log ✈ CSH9224 ✈ 31-Oct-2013 ✈ ZWTN / HTN - ZWWW / URC

Flight Track Log - Related Links

Times and Time Zones

All times are in EDT time to prevent confusion due to time zone crossing. See the CSH9224 flight status page for this flight to view local times or setup timezone preferences in your user account.

Time Position Orientation Groundspeed Altitude Reporting Facility
EDT Latitude Longitude Course Direction KTS MPH feet Rate Location/Type
10:09AM 38.0114 80.8232 38° Northeast  Level Estimated
10:10AM 38.0994 80.9116 38° Northeast  Level Estimated
10:11AM 38.1794 80.9921 38° Northeast  Level Estimated
10:12AM 38.2594 81.0728 38° Northeast  Level Estimated
10:13AM 38.3392 81.1536 38° Northeast  Level Estimated
10:14AM 38.4191 81.2347 38° Northeast  Level Estimated
10:15AM 38.4989 81.3159 39° Northeast  Level Estimated
10:16AM 38.5786 81.3973 39° Northeast  Level Estimated
10:17AM 38.6582 81.4789 39° Northeast  Level Estimated
10:18AM 38.7378 81.5607 39° Northeast  Level Estimated
10:19AM 38.8174 81.6426 39° Northeast  Level Estimated
10:20AM 38.8969 81.7248 39° Northeast  Level Estimated
10:21AM 38.9763 81.8071 39° Northeast  Level Estimated
10:22AM 39.0556 81.8896 39° Northeast  Level Estimated
10:23AM 39.1350 81.9723 39° Northeast  Level Estimated
10:24AM 39.2142 82.0552 39° Northeast  Level Estimated
10:25AM 39.2934 82.1383 39° Northeast  Level Estimated
10:26AM 39.3725 82.2215 39° Northeast  Level Estimated
10:27AM 39.4516 82.3049 39° Northeast  Level Estimated
10:28AM 39.5306 82.3886 39° Northeast  Level Estimated
10:29AM 39.6096 82.4724 39° Northeast  Level Estimated
10:30AM 39.6885 82.5564 39° Northeast  Level Estimated
10:31AM 39.7673 82.6406 39° Northeast  Level Estimated
10:32AM 39.8461 82.7250 39° Northeast  Level Estimated
10:33AM 39.9248 82.8096 39° Northeast  Level Estimated
10:34AM 40.0035 82.8944 40° Northeast  Level Estimated
10:35AM 40.0821 82.9794 40° Northeast  Level Estimated
10:36AM 40.1606 83.0646 40° Northeast  Level Estimated
10:37AM 40.2390 83.1499 40° Northeast  Level Estimated
10:38AM 40.3174 83.2355 40° Northeast  Level Estimated
10:39AM 40.3958 83.3213 40° Northeast  Level Estimated
10:40AM 40.4740 83.4072 40° Northeast  Level Estimated
10:41AM 40.5523 83.4934 40° Northeast  Level Estimated
10:42AM 40.6304 83.5798 40° Northeast  Level Estimated
10:43AM 40.7085 83.6664 40° Northeast  Level Estimated
10:44AM 40.7865 83.7532 40° Northeast  Level Estimated
10:45AM 40.8645 83.8401 40° Northeast  Level Estimated
10:46AM 40.9423 83.9273 40° Northeast  Level Estimated
10:47AM 41.0202 84.0147 40° Northeast  Level Estimated
10:48AM 41.0979 84.1023 40° Northeast  Level Estimated
10:49AM 41.1756 84.1901 40° Northeast  Level Estimated
10:50AM 41.2532 84.2782 40° Northeast  Level Estimated
10:51AM 41.3308 84.3664 40° Northeast  Level Estimated
10:52AM 41.4083 84.4548 41° Northeast  Level Estimated
10:53AM 41.4857 84.5435 41° Northeast  Level Estimated
10:54AM 41.5630 84.6323 41° Northeast  Level Estimated
10:55AM 41.6403 84.7214 41° Northeast  Level Estimated
10:56AM 41.7175 84.8107 41° Northeast  Level Estimated
10:57AM 41.7947 84.9002 41° Northeast  Level Estimated
10:58AM 41.8717 84.9899 41° Northeast  Level Estimated
10:59AM 41.9487 85.0799 41° Northeast  Level Estimated
11:00AM 42.0257 85.1700 41° Northeast  Level Estimated
11:01AM 42.1025 85.2604 41° Northeast  Level Estimated
11:02AM 42.1793 85.3510 41° Northeast  Level Estimated
11:03AM 42.2560 85.4418 41° Northeast  Level Estimated
11:04AM 42.3327 85.5328 41° Northeast  Level Estimated
11:05AM 42.4093 85.6241 41° Northeast  Level Estimated
11:06AM 42.4858 85.7156 41° Northeast  Level Estimated
11:07AM 42.5622 85.8073 41° Northeast  Level Estimated
11:08AM 42.6386 85.8992 42° Northeast  Level Estimated
11:09AM 42.7148 85.9913 42° Northeast  Level Estimated
11:10AM 42.7910 86.0837 42° Northeast  Level Estimated
11:11AM 42.8672 86.1763 42° Northeast  Level Estimated
11:12AM 42.9432 86.2691 42° Northeast  Level Estimated
11:13AM 43.0144 86.3562 42° Northeast  Level Estimated
11:14AM 43.0855 86.4436 42° Northeast  Level Estimated
11:15AM 43.1565 86.5311 42° Northeast  Level Estimated
11:16AM 43.2274 86.6188 42° Northeast  Level Estimated
11:17AM 43.2983 86.7067 42° Northeast  Level Estimated
11:18AM 43.3691 86.7949 42° Northeast  Level Estimated
11:19AM 43.4398 86.8832 42° Northeast  Level Estimated
11:20AM 43.5105 86.9718 42° Northeast  Level Estimated
11:21AM 43.5811 87.0605 42° Northeast  Level Estimated
11:22AM 43.6516 87.1495 42° Northeast  Level Estimated
11:23AM 43.7221 87.2386 42° Northeast  Level Estimated
11:24AM 43.7925 87.3280 42° Northeast  Level Estimated
11:25AM 43.8628 87.4176 43° Northeast  Level Estimated
11:26AM 43.9071 87.4742 43° Northeast  Level Estimated
11:27AM 43.9071 87.4742 144° Southeast  Level Estimated
11:28AM 43.9071 87.4742 144° Southeast  Level Estimated
11:29AM 43.9071 87.4742 144° Southeast  Level Estimated
11:30AM 43.9071 87.4742 144° Southeast  Level Estimated
11:31AM 43.9071 87.4742 144° Southeast  Level Estimated
11:32AM 43.9071 87.4742 144° Southeast  Level Estimated
11:33AM 43.9071 87.4742 144° Southeast  Level Estimated
11:34AM 43.9071 87.4742 144° Southeast  Level Estimated
11:35AM 43.9071 87.4742 144° Southeast  Level Estimated
11:36AM 43.9071 87.4742 144° Southeast  Level Estimated
11:37AM 43.9071 87.4742 144° Southeast  Level Estimated
11:38AM 43.9071 87.4742 144° Southeast  Level Estimated
11:39AM 43.9071 87.4742 144° Southeast  Level Estimated
11:40AM 43.9071 87.4742 144° Southeast  Level Estimated